バロー の空港の天気 - METARとTAF

Barrow, Wiley Post-Will Rogers Memorial Airport ( PABR / BRW ) - アメリカ アラスカ州バロー
飛行場実況気象(Metar)
観測時間06/25 04:53 AKDT (06/25 12:53 UTC)
風向・風速南 3m/s
視程10km以上
天気現象
全天を覆う雲 雲底高度 1160m
気温6.1℃
湿度86%
気圧1014.5hPa
METARPABR 251253Z AUTO 17006KT 10SM OVC038 06/04 A2996 RMK AO2 SLP145 T00610039 TSNO $
過去の天気等 Google飛行場航空写真 Wunderground天気予報

過去48時間のMETAR

飛行場予報(TAF)
発表時間: 6/25 03:20 AKDT (6/25 11:20 UTC)
予報対象時間: 25日4時 AKDT ~ 26日4時 AKDT
風向・風速南南西 4m/s
視程10km以上
全天の4割程度の雲 雲底高度 1520m
25日9時 AKDT から
風向・風速南南東 4m/s
視程10km以上
全天の4割程度の雲 雲底高度 1370m
全天の8割程度の雲 雲底高度 4570m
PABR 251120Z 2512/2612 20007KT P6SM SCT050
FM251700 16008KT P6SM SCT045 BKN150